Time,TemperatureF,DewpointF,PressureIn,WindDirection,WindDirectionDegrees,WindSpeedMPH,WindSpeedGustMPH,Humidity,HourlyPrecipIn,Conditions,Clouds,dailyrainin,SoftwareType,DateUTC
2013-05-03 00:08:00,66.0,62.3,29.97,ESE,112,0.0,-999.0,88,0.00,,,0.08,open2300 v1.10,2013-05-03 05:08:00,
2013-05-03 00:13:00,66.0,62.3,29.97,ESE,112,0.0,-999.0,88,0.00,,,0.08,open2300 v1.10,2013-05-03 05:13:00,
2013-05-03 00:18:00,66.0,62.3,29.97,SE,135,6.9,-999.0,88,0.00,,,0.08,open2300 v1.10,2013-05-03 05:18:00,
2013-05-03 00:24:00,65.8,62.2,29.97,SE,135,2.5,-999.0,88,0.00,,,0.08,open2300 v1.10,2013-05-03 05:24:00,
2013-05-03 00:34:00,65.8,62.2,29.96,ESE,112,0.0,-999.0,88,0.00,,,0.08,open2300 v1.10,2013-05-03 05:34:00,
2013-05-03 00:39:00,65.8,62.2,29.96,ESE,112,2.9,-999.0,88,0.00,,,0.08,open2300 v1.10,2013-05-03 05:39:00,
2013-05-03 00:49:00,65.7,62.0,29.96,ESE,112,0.0,-999.0,88,0.00,,,0.08,open2300 v1.10,2013-05-03 05:49:00,
2013-05-03 00:54:00,65.7,62.0,29.95,SE,135,0.0,-999.0,88,0.00,,,0.08,open2300 v1.10,2013-05-03 05:54:00,
2013-05-03 00:59:00,65.7,62.0,29.95,SE,135,0.0,-999.0,88,0.00,,,0.08,open2300 v1.10,2013-05-03 05:59:00,
2013-05-03 01:06:00,65.7,62.0,29.95,SE,135,0.0,-999.0,88,0.00,,,0.06,open2300 v1.10,2013-05-03 06:06:00,
2013-05-03 01:13:00,65.7,62.0,29.95,SE,135,0.0,-999.0,88,0.00,,,0.06,open2300 v1.10,2013-05-03 06:13:00,
2013-05-03 01:18:00,65.7,62.3,29.95,SE,135,0.0,-999.0,89,0.00,,,0.06,open2300 v1.10,2013-05-03 06:18:00,
2013-05-03 01:23:00,65.8,62.2,29.95,SE,135,0.0,-999.0,88,0.00,,,0.06,open2300 v1.10,2013-05-03 06:23:00,
2013-05-03 01:29:00,65.7,62.0,29.94,SE,135,0.0,-999.0,88,0.00,,,0.06,open2300 v1.10,2013-05-03 06:29:00,
2013-05-03 01:39:00,65.8,62.2,29.94,SE,135,0.0,-999.0,88,0.00,,,0.06,open2300 v1.10,2013-05-03 06:39:00,
2013-05-03 01:44:00,65.8,62.2,29.94,SE,135,4.7,-999.0,88,0.00,,,0.06,open2300 v1.10,2013-05-03 06:44:00,
2013-05-03 01:49:00,65.8,62.2,29.94,SE,135,0.0,-999.0,88,0.00,,,0.06,open2300 v1.10,2013-05-03 06:49:00,
2013-05-03 01:54:00,65.8,62.2,29.94,SE,135,0.0,-999.0,88,0.00,,,0.06,open2300 v1.10,2013-05-03 06:54:00,
2013-05-03 01:59:00,66.0,62.3,29.93,SE,135,0.0,-999.0,88,0.00,,,0.06,open2300 v1.10,2013-05-03 06:59:00,
2013-05-03 02:08:00,65.8,62.2,29.93,SE,135,0.0,-999.0,88,0.00,,,0.06,open2300 v1.10,2013-05-03 07:08:00,
2013-05-03 02:13:00,66.0,62.3,29.93,SE,135,0.0,-999.0,88,0.00,,,0.06,open2300 v1.10,2013-05-03 07:13:00,
2013-05-03 02:24:00,66.0,62.3,29.93,SE,135,0.0,-999.0,88,0.00,,,0.06,open2300 v1.10,2013-05-03 07:24:00,
2013-05-03 02:29:00,66.0,62.3,29.93,SE,135,0.0,-999.0,88,0.00,,,0.06,open2300 v1.10,2013-05-03 07:29:00,
2013-05-03 02:34:00,66.0,62.3,29.93,SE,135,0.0,-999.0,88,0.00,,,0.06,open2300 v1.10,2013-05-03 07:34:00,
2013-05-03 02:39:00,66.0,62.3,29.93,SE,135,0.0,-999.0,88,0.00,,,0.06,open2300 v1.10,2013-05-03 07:39:00,
2013-05-03 02:49:00,66.2,62.5,29.92,South,180,0.0,-999.0,88,0.00,,,0.06,open2300 v1.10,2013-05-03 07:49:00,
2013-05-03 02:54:00,66.2,62.5,29.92,South,180,0.0,-999.0,88,0.04,,,0.10,open2300 v1.10,2013-05-03 07:54:00,
2013-05-03 02:59:00,66.0,62.3,29.92,South,180,0.0,-999.0,88,0.06,,,0.12,open2300 v1.10,2013-05-03 07:59:00,
2013-05-03 03:08:00,66.0,62.3,29.92,South,180,4.2,-999.0,88,0.06,,,0.12,open2300 v1.10,2013-05-03 08:08:00,
2013-05-03 03:13:00,66.0,62.3,29.92,SSE,157,0.0,-999.0,88,0.08,,,0.14,open2300 v1.10,2013-05-03 08:13:00,
2013-05-03 03:18:00,66.0,62.3,29.92,South,180,0.0,-999.0,88,0.08,,,0.14,open2300 v1.10,2013-05-03 08:18:00,
2013-05-03 03:24:00,65.8,62.2,29.92,South,180,0.0,-999.0,88,0.08,,,0.14,open2300 v1.10,2013-05-03 08:24:00,
2013-05-03 03:29:00,65.8,62.2,29.92,South,180,0.0,-999.0,88,0.08,,,0.14,open2300 v1.10,2013-05-03 08:29:00,
2013-05-03 03:34:00,65.8,62.2,29.92,South,180,0.0,-999.0,88,0.08,,,0.14,open2300 v1.10,2013-05-03 08:34:00,
2013-05-03 03:39:00,65.8,62.5,29.92,South,180,0.7,-999.0,89,0.08,,,0.14,open2300 v1.10,2013-05-03 08:39:00,
2013-05-03 03:44:00,65.8,62.5,29.91,South,180,0.0,-999.0,89,0.08,,,0.14,open2300 v1.10,2013-05-03 08:44:00,
2013-05-03 03:49:00,65.8,62.5,29.92,South,180,0.0,-999.0,89,0.06,,,0.14,open2300 v1.10,2013-05-03 08:49:00,
2013-05-03 03:54:00,65.8,62.5,29.91,South,180,0.0,-999.0,89,0.02,,,0.14,open2300 v1.10,2013-05-03 08:54:00,
2013-05-03 03:59:00,65.8,62.5,29.91,South,180,0.9,-999.0,89,0.02,,,0.14,open2300 v1.10,2013-05-03 08:59:00,
2013-05-03 04:08:00,65.8,62.5,29.92,South,180,0.0,-999.0,89,0.00,,,0.14,open2300 v1.10,2013-05-03 09:08:00,
2013-05-03 04:13:00,65.8,62.5,29.91,South,180,0.0,-999.0,89,0.00,,,0.14,open2300 v1.10,2013-05-03 09:13:00,
2013-05-03 04:24:00,65.8,62.5,29.92,South,180,0.0,-999.0,89,0.00,,,0.14,open2300 v1.10,2013-05-03 09:24:00,
2013-05-03 04:34:00,65.8,62.5,29.92,SSE,157,0.0,-999.0,89,0.00,,,0.14,open2300 v1.10,2013-05-03 09:34:00,
2013-05-03 04:39:00,65.8,62.5,29.91,SSE,157,0.0,-999.0,89,0.00,,,0.14,open2300 v1.10,2013-05-03 09:39:00,
2013-05-03 04:49:00,65.8,62.5,29.91,SSE,157,0.0,-999.0,89,0.00,,,0.14,open2300 v1.10,2013-05-03 09:49:00,
2013-05-03 04:54:00,65.8,62.5,29.91,SSE,157,0.0,-999.0,89,0.00,,,0.14,open2300 v1.10,2013-05-03 09:54:00,
2013-05-03 04:59:00,65.8,62.5,29.91,SSE,157,0.0,-999.0,89,0.00,,,0.14,open2300 v1.10,2013-05-03 09:59:00,
2013-05-03 05:08:00,65.8,62.5,29.91,SSE,157,0.0,-999.0,89,0.00,,,0.14,open2300 v1.10,2013-05-03 10:08:00,
2013-05-03 05:13:00,65.8,62.5,29.91,SSE,157,0.0,-999.0,89,0.00,,,0.14,open2300 v1.10,2013-05-03 10:13:00,
2013-05-03 05:18:00,65.8,62.5,29.91,SSE,157,0.0,-999.0,89,0.00,,,0.14,open2300 v1.10,2013-05-03 10:18:00,
2013-05-03 05:24:00,65.8,62.5,29.91,SSE,157,0.0,-999.0,89,0.00,,,0.14,open2300 v1.10,2013-05-03 10:24:00,
2013-05-03 05:29:00,65.8,62.5,29.91,SSE,157,0.0,-999.0,89,0.00,,,0.14,open2300 v1.10,2013-05-03 10:29:00,
2013-05-03 05:34:00,65.7,62.3,29.91,SSE,157,0.0,-999.0,89,0.00,,,0.14,open2300 v1.10,2013-05-03 10:34:00,
2013-05-03 05:39:00,65.7,62.3,29.91,South,180,0.0,-999.0,89,0.00,,,0.14,open2300 v1.10,2013-05-03 10:39:00,
2013-05-03 05:44:00,65.8,62.5,29.91,South,180,0.0,-999.0,89,0.00,,,0.14,open2300 v1.10,2013-05-03 10:44:00,
2013-05-03 05:49:00,65.8,62.5,29.91,South,180,0.0,-999.0,89,0.00,,,0.14,open2300 v1.10,2013-05-03 10:49:00,
2013-05-03 05:54:00,65.8,62.5,29.91,South,180,0.0,-999.0,89,0.00,,,0.14,open2300 v1.10,2013-05-03 10:54:00,
2013-05-03 05:59:00,65.8,62.5,29.91,South,180,1.6,-999.0,89,0.02,,,0.16,open2300 v1.10,2013-05-03 10:59:00,
2013-05-03 06:08:00,65.8,62.5,29.91,South,180,0.0,-999.0,89,0.02,,,0.16,open2300 v1.10,2013-05-03 11:08:00,
2013-05-03 06:13:00,65.8,62.5,29.91,South,180,0.0,-999.0,89,0.02,,,0.16,open2300 v1.10,2013-05-03 11:13:00,
2013-05-03 06:18:00,65.8,62.5,29.91,South,180,0.0,-999.0,89,0.02,,,0.16,open2300 v1.10,2013-05-03 11:18:00,
2013-05-03 06:23:00,65.7,62.3,29.91,SSW,202,0.7,-999.0,89,0.02,,,0.16,open2300 v1.10,2013-05-03 11:23:00,
2013-05-03 06:29:00,65.7,62.3,29.92,South,180,0.0,-999.0,89,0.02,,,0.16,open2300 v1.10,2013-05-03 11:29:00,
2013-05-03 06:34:00,65.8,62.5,29.93,NW,315,5.4,-999.0,89,0.02,,,0.16,open2300 v1.10,2013-05-03 11:34:00,
2013-05-03 06:39:00,65.8,62.5,29.93,NNW,337,10.7,-999.0,89,0.02,,,0.16,open2300 v1.10,2013-05-03 11:39:00,
2013-05-03 06:44:00,65.1,60.8,29.93,NNW,337,1.8,-999.0,86,0.02,,,0.16,open2300 v1.10,2013-05-03 11:44:00,
2013-05-03 06:49:00,64.6,60.0,29.93,North,0,0.0,-999.0,85,0.02,,,0.16,open2300 v1.10,2013-05-03 11:49:00,
2013-05-03 06:54:00,63.7,58.8,29.94,NNE,22,0.0,-999.0,84,0.00,,,0.16,open2300 v1.10,2013-05-03 11:54:00,
2013-05-03 06:59:00,63.0,58.4,29.93,NNE,22,1.8,-999.0,85,0.00,,,0.16,open2300 v1.10,2013-05-03 11:59:00,
2013-05-03 07:08:00,61.5,57.0,29.94,NW,315,0.0,-999.0,85,0.08,,,0.24,open2300 v1.10,2013-05-03 12:08:00,
2013-05-03 07:13:00,61.0,56.8,29.94,WNW,292,0.0,-999.0,86,0.10,,,0.26,open2300 v1.10,2013-05-03 12:13:00,
2013-05-03 07:18:00,60.1,56.2,29.95,NNW,337,0.0,-999.0,87,0.10,,,0.26,open2300 v1.10,2013-05-03 12:18:00,
2013-05-03 07:24:00,59.9,56.0,29.95,North,0,4.0,-999.0,87,0.12,,,0.29,open2300 v1.10,2013-05-03 12:24:00,
2013-05-03 07:29:00,59.5,55.7,29.95,NW,315,0.0,-999.0,87,0.14,,,0.31,open2300 v1.10,2013-05-03 12:29:00,
2013-05-03 07:34:00,58.8,55.3,29.95,NW,315,5.6,-999.0,88,0.16,,,0.33,open2300 v1.10,2013-05-03 12:34:00,
2013-05-03 07:39:00,58.8,55.3,29.95,WNW,292,8.1,-999.0,88,0.18,,,0.35,open2300 v1.10,2013-05-03 12:39:00,
2013-05-03 07:44:00,57.9,54.4,29.95,NNE,22,0.4,-999.0,88,0.18,,,0.35,open2300 v1.10,2013-05-03 12:44:00,
2013-05-03 07:49:00,57.7,54.2,29.95,NNW,337,0.0,-999.0,88,0.18,,,0.35,open2300 v1.10,2013-05-03 12:49:00,
2013-05-03 07:54:00,57.4,53.8,29.95,NNE,22,1.1,-999.0,88,0.18,,,0.35,open2300 v1.10,2013-05-03 12:54:00,
2013-05-03 07:59:00,57.0,53.8,29.96,NNE,22,0.0,-999.0,89,0.18,,,0.35,open2300 v1.10,2013-05-03 12:59:00,
2013-05-03 08:08:00,57.0,53.8,29.96,North,0,6.3,-999.0,89,0.10,,,0.37,open2300 v1.10,2013-05-03 13:08:00,
2013-05-03 08:13:00,56.8,53.6,29.96,East,90,5.1,-999.0,89,0.10,,,0.37,open2300 v1.10,2013-05-03 13:13:00,
2013-05-03 08:18:00,56.7,53.5,29.96,North,0,0.0,-999.0,89,0.10,,,0.37,open2300 v1.10,2013-05-03 13:18:00,
2013-05-03 08:23:00,56.5,53.3,29.96,North,0,0.2,-999.0,89,0.08,,,0.37,open2300 v1.10,2013-05-03 13:23:00,
2013-05-03 08:29:00,56.5,53.3,29.96,NW,315,2.7,-999.0,89,0.04,,,0.37,open2300 v1.10,2013-05-03 13:29:00,
2013-05-03 08:39:00,56.1,52.9,29.96,North,0,4.0,-999.0,89,0.02,,,0.37,open2300 v1.10,2013-05-03 13:39:00,
2013-05-03 08:44:00,56.1,52.9,29.97,NNW,337,15.2,-999.0,89,0.02,,,0.37,open2300 v1.10,2013-05-03 13:44:00,
2013-05-03 08:49:00,55.9,52.7,29.97,NW,315,17.2,-999.0,89,0.02,,,0.37,open2300 v1.10,2013-05-03 13:49:00,
2013-05-03 08:54:00,55.8,52.6,29.97,North,0,0.0,-999.0,89,0.04,,,0.39,open2300 v1.10,2013-05-03 13:54:00,
2013-05-03 08:59:00,55.6,52.4,29.97,ENE,67,0.0,-999.0,89,0.04,,,0.39,open2300 v1.10,2013-05-03 13:59:00,
2013-05-03 09:08:00,55.2,52.0,29.97,NNE,22,0.0,-999.0,89,0.02,,,0.37,open2300 v1.10,2013-05-03 14:08:00,
2013-05-03 09:13:00,55.2,52.0,29.97,NE,45,0.0,-999.0,89,0.04,,,0.39,open2300 v1.10,2013-05-03 14:13:00,
2013-05-03 09:18:00,55.2,52.0,29.97,North,0,0.0,-999.0,89,0.04,,,0.39,open2300 v1.10,2013-05-03 14:18:00,
2013-05-03 09:23:00,55.2,52.3,29.97,NNW,337,2.5,-999.0,90,0.06,,,0.41,open2300 v1.10,2013-05-03 14:23:00,
2013-05-03 09:29:00,55.2,52.3,29.97,NNE,22,0.0,-999.0,90,0.08,,,0.43,open2300 v1.10,2013-05-03 14:29:00,
2013-05-03 09:34:00,55.2,52.3,29.97,North,0,0.0,-999.0,90,0.08,,,0.43,open2300 v1.10,2013-05-03 14:34:00,
2013-05-03 09:39:00,55.2,52.3,29.97,NW,315,0.0,-999.0,90,0.08,,,0.43,open2300 v1.10,2013-05-03 14:39:00,
2013-05-03 09:44:00,55.4,52.5,29.97,NNE,22,4.9,-999.0,90,0.08,,,0.43,open2300 v1.10,2013-05-03 14:44:00,
2013-05-03 09:54:00,55.2,52.3,29.97,NNE,22,0.0,-999.0,90,0.06,,,0.43,open2300 v1.10,2013-05-03 14:54:00,
2013-05-03 09:59:00,55.2,52.3,29.98,East,90,0.0,-999.0,90,0.06,,,0.43,open2300 v1.10,2013-05-03 14:59:00,
2013-05-03 10:08:00,55.2,52.3,29.98,NNW,337,0.0,-999.0,90,0.04,,,0.43,open2300 v1.10,2013-05-03 15:08:00,
2013-05-03 10:13:00,55.2,52.3,29.98,West,270,7.6,-999.0,90,0.04,,,0.43,open2300 v1.10,2013-05-03 15:13:00,
2013-05-03 10:18:00,55.2,52.3,29.98,NNW,337,12.8,-999.0,90,0.02,,,0.43,open2300 v1.10,2013-05-03 15:18:00,
2013-05-03 10:23:00,54.7,51.8,29.98,ENE,67,0.0,-999.0,90,0.04,,,0.45,open2300 v1.10,2013-05-03 15:23:00,
2013-05-03 10:29:00,54.7,51.5,29.98,NNW,337,0.0,-999.0,89,0.02,,,0.45,open2300 v1.10,2013-05-03 15:29:00,
2013-05-03 10:34:00,54.5,51.3,29.98,NNE,22,0.4,-999.0,89,0.02,,,0.45,open2300 v1.10,2013-05-03 15:34:00,
2013-05-03 10:39:00,54.3,51.1,29.98,NW,315,8.9,-999.0,89,0.02,,,0.45,open2300 v1.10,2013-05-03 15:39:00,
2013-05-03 10:44:00,54.3,51.1,29.98,North,0,1.3,-999.0,89,0.02,,,0.45,open2300 v1.10,2013-05-03 15:44:00,
2013-05-03 10:49:00,54.3,51.4,29.99,NNW,337,14.3,-999.0,90,0.04,,,0.47,open2300 v1.10,2013-05-03 15:49:00,
2013-05-03 10:59:00,54.1,50.9,29.99,NW,315,0.7,-999.0,89,0.04,,,0.47,open2300 v1.10,2013-05-03 15:59:00,
2013-05-03 11:08:00,54.3,51.4,29.99,NNW,337,5.8,-999.0,90,0.04,,,0.43,open2300 v1.10,2013-05-03 16:08:00,
2013-05-03 11:13:00,54.3,51.1,29.99,NW,315,0.9,-999.0,89,0.04,,,0.43,open2300 v1.10,2013-05-03 16:13:00,
2013-05-03 11:18:00,54.5,51.6,29.99,NNE,22,0.9,-999.0,90,0.02,,,0.43,open2300 v1.10,2013-05-03 16:18:00,
2013-05-03 11:23:00,54.9,51.7,29.99,NNW,337,0.0,-999.0,89,0.02,,,0.43,open2300 v1.10,2013-05-03 16:23:00,
2013-05-03 11:29:00,54.9,51.7,29.99,NNE,22,0.0,-999.0,89,0.02,,,0.43,open2300 v1.10,2013-05-03 16:29:00,
2013-05-03 11:34:00,54.7,51.5,29.99,NNE,22,0.0,-999.0,89,0.02,,,0.43,open2300 v1.10,2013-05-03 16:34:00,
2013-05-03 11:39:00,54.5,51.3,29.99,NW,315,0.0,-999.0,89,0.04,,,0.45,open2300 v1.10,2013-05-03 16:39:00,
2013-05-03 11:44:00,54.3,50.8,29.99,NE,45,7.2,-999.0,88,0.02,,,0.45,open2300 v1.10,2013-05-03 16:44:00,
2013-05-03 11:54:00,53.4,49.9,29.98,NNE,22,0.2,-999.0,88,0.02,,,0.45,open2300 v1.10,2013-05-03 16:54:00,
2013-05-03 11:59:00,53.2,49.8,29.99,North,0,0.0,-999.0,88,0.02,,,0.45,open2300 v1.10,2013-05-03 16:59:00,
2013-05-03 12:08:00,52.9,49.4,29.99,NE,45,0.0,-999.0,88,0.02,,,0.45,open2300 v1.10,2013-05-03 17:08:00,
2013-05-03 12:13:00,52.9,49.4,29.98,NE,45,0.0,-999.0,88,0.02,,,0.45,open2300 v1.10,2013-05-03 17:13:00,
2013-05-03 12:18:00,52.9,49.4,29.98,NNW,337,3.1,-999.0,88,0.02,,,0.45,open2300 v1.10,2013-05-03 17:18:00,
2013-05-03 12:23:00,52.7,49.2,29.98,North,0,0.4,-999.0,88,0.02,,,0.45,open2300 v1.10,2013-05-03 17:23:00,
2013-05-03 12:29:00,52.7,49.5,29.98,NNE,22,0.0,-999.0,89,0.04,,,0.47,open2300 v1.10,2013-05-03 17:29:00,
2013-05-03 12:34:00,52.9,49.7,29.97,NE,45,0.0,-999.0,89,0.04,,,0.47,open2300 v1.10,2013-05-03 17:34:00,
2013-05-03 12:39:00,52.9,49.7,29.97,ENE,67,0.0,-999.0,89,0.04,,,0.49,open2300 v1.10,2013-05-03 17:39:00,
2013-05-03 12:44:00,52.9,49.7,29.98,North,0,0.0,-999.0,89,0.04,,,0.49,open2300 v1.10,2013-05-03 17:44:00,
2013-05-03 12:49:00,52.9,49.7,29.97,ENE,67,0.0,-999.0,89,0.04,,,0.49,open2300 v1.10,2013-05-03 17:49:00,
2013-05-03 12:54:00,53.2,50.0,29.98,North,0,13.6,-999.0,89,0.04,,,0.49,open2300 v1.10,2013-05-03 17:54:00,
2013-05-03 12:59:00,53.2,50.0,29.98,NNE,22,4.0,-999.0,89,0.04,,,0.49,open2300 v1.10,2013-05-03 17:59:00,
2013-05-03 13:08:00,53.2,50.0,29.98,NW,315,0.0,-999.0,89,0.04,,,0.49,open2300 v1.10,2013-05-03 18:08:00,
2013-05-03 13:13:00,53.4,50.2,29.98,ENE,67,0.0,-999.0,89,0.04,,,0.49,open2300 v1.10,2013-05-03 18:13:00,
2013-05-03 13:18:00,53.4,50.2,29.97,NE,45,0.4,-999.0,89,0.04,,,0.49,open2300 v1.10,2013-05-03 18:18:00,
2013-05-03 13:23:00,53.2,50.0,29.97,North,0,5.4,-999.0,89,0.04,,,0.49,open2300 v1.10,2013-05-03 18:23:00,
2013-05-03 13:29:00,53.2,49.8,29.97,NNE,22,0.0,-999.0,88,0.02,,,0.49,open2300 v1.10,2013-05-03 18:29:00,
2013-05-03 13:34:00,53.2,49.8,29.97,SE,135,3.4,-999.0,88,0.02,,,0.49,open2300 v1.10,2013-05-03 18:34:00,
2013-05-03 13:39:00,53.4,49.9,29.97,NNE,22,1.3,-999.0,88,0.00,,,0.49,open2300 v1.10,2013-05-03 18:39:00,
2013-05-03 13:44:00,53.4,49.9,29.97,NNW,337,2.5,-999.0,88,0.00,,,0.49,open2300 v1.10,2013-05-03 18:44:00,
2013-05-03 13:49:00,53.8,50.0,29.97,North,0,0.0,-999.0,87,0.00,,,0.49,open2300 v1.10,2013-05-03 18:49:00,
2013-05-03 13:54:00,54.1,50.3,29.97,ESE,112,0.0,-999.0,87,0.00,,,0.49,open2300 v1.10,2013-05-03 18:54:00,
2013-05-03 14:03:00,54.3,50.2,29.97,East,90,2.7,-999.0,86,0.00,,,0.49,open2300 v1.10,2013-05-03 19:03:00,
2013-05-03 14:08:00,54.1,50.0,29.97,ENE,67,3.1,-999.0,86,0.00,,,0.49,open2300 v1.10,2013-05-03 19:08:00,
2013-05-03 14:13:00,54.0,49.5,29.97,North,0,2.7,-999.0,85,0.00,,,0.49,open2300 v1.10,2013-05-03 19:13:00,
2013-05-03 14:19:00,54.0,49.8,29.97,ESE,112,6.3,-999.0,86,0.00,,,0.49,open2300 v1.10,2013-05-03 19:19:00,
2013-05-03 14:24:00,53.8,49.3,29.97,NE,45,2.7,-999.0,85,0.00,,,0.49,open2300 v1.10,2013-05-03 19:24:00,
2013-05-03 14:29:00,53.8,49.3,29.98,NNW,337,5.6,-999.0,85,0.00,,,0.49,open2300 v1.10,2013-05-03 19:29:00,
2013-05-03 14:34:00,53.4,49.0,29.98,NNE,22,6.9,-999.0,85,0.00,,,0.49,open2300 v1.10,2013-05-03 19:34:00,
2013-05-03 14:39:00,53.2,48.8,29.98,North,0,6.5,-999.0,85,0.00,,,0.49,open2300 v1.10,2013-05-03 19:39:00,
2013-05-03 14:49:00,53.1,48.3,29.98,North,0,14.1,-999.0,84,0.00,,,0.49,open2300 v1.10,2013-05-03 19:49:00,
2013-05-03 14:54:00,52.9,48.2,29.98,North,0,5.6,-999.0,84,0.00,,,0.49,open2300 v1.10,2013-05-03 19:54:00,
2013-05-03 14:59:00,52.7,48.0,29.98,NNW,337,9.8,-999.0,84,0.00,,,0.49,open2300 v1.10,2013-05-03 19:59:00,
2013-05-03 15:08:00,52.5,47.8,29.98,WNW,292,7.4,-999.0,84,0.00,,,0.49,open2300 v1.10,2013-05-03 20:08:00,
2013-05-03 15:13:00,52.7,47.7,29.97,North,0,4.0,-999.0,83,0.00,,,0.49,open2300 v1.10,2013-05-03 20:13:00,
2013-05-03 15:18:00,52.9,47.9,29.97,NNW,337,0.0,-999.0,83,0.00,,,0.49,open2300 v1.10,2013-05-03 20:18:00,
2013-05-03 15:23:00,53.4,48.4,29.97,ENE,67,7.4,-999.0,83,0.00,,,0.49,open2300 v1.10,2013-05-03 20:23:00,
2013-05-03 15:29:00,53.6,48.3,29.96,NNW,337,0.0,-999.0,82,0.00,,,0.49,open2300 v1.10,2013-05-03 20:29:00,
2013-05-03 15:34:00,53.6,48.3,29.96,North,0,0.0,-999.0,82,0.00,,,0.49,open2300 v1.10,2013-05-03 20:34:00,
2013-05-03 15:39:00,53.4,47.8,29.96,North,0,5.6,-999.0,81,0.00,,,0.49,open2300 v1.10,2013-05-03 20:39:00,
2013-05-03 15:44:00,53.2,47.6,29.96,NE,45,11.4,-999.0,81,0.00,,,0.49,open2300 v1.10,2013-05-03 20:44:00,
2013-05-03 15:49:00,52.9,47.2,29.97,North,0,7.8,-999.0,81,0.00,,,0.49,open2300 v1.10,2013-05-03 20:49:00,
2013-05-03 15:54:00,52.9,47.2,29.97,ENE,67,3.6,-999.0,81,0.00,,,0.49,open2300 v1.10,2013-05-03 20:54:00,
2013-05-03 15:59:00,52.9,47.2,29.96,NE,45,11.6,-999.0,81,0.00,,,0.49,open2300 v1.10,2013-05-03 20:59:00,
2013-05-03 16:08:00,52.3,46.7,29.97,North,0,0.0,-999.0,81,0.00,,,0.49,open2300 v1.10,2013-05-03 21:08:00,
2013-05-03 16:18:00,52.5,46.9,29.97,NE,45,0.0,-999.0,81,0.00,,,0.49,open2300 v1.10,2013-05-03 21:18:00,
2013-05-03 16:23:00,52.3,46.4,29.97,North,0,2.7,-999.0,80,0.00,,,0.49,open2300 v1.10,2013-05-03 21:23:00,
2013-05-03 16:29:00,52.3,46.4,29.98,NNW,337,6.0,-999.0,80,0.00,,,0.49,open2300 v1.10,2013-05-03 21:29:00,
2013-05-03 16:34:00,52.0,45.7,29.97,North,0,9.8,-999.0,79,0.00,,,0.49,open2300 v1.10,2013-05-03 21:34:00,
2013-05-03 16:39:00,51.6,45.3,29.97,ESE,112,5.8,-999.0,79,0.00,,,0.49,open2300 v1.10,2013-05-03 21:39:00,
2013-05-03 16:44:00,51.4,45.2,29.97,NNW,337,3.6,-999.0,79,0.00,,,0.49,open2300 v1.10,2013-05-03 21:44:00,
2013-05-03 16:49:00,51.4,45.2,29.97,NNE,22,0.0,-999.0,79,0.00,,,0.49,open2300 v1.10,2013-05-03 21:49:00,
2013-05-03 16:54:00,51.3,45.0,29.98,North,0,10.7,-999.0,79,0.00,,,0.49,open2300 v1.10,2013-05-03 21:54:00,
2013-05-03 16:59:00,51.1,44.8,29.97,North,0,12.3,-999.0,79,0.00,,,0.49,open2300 v1.10,2013-05-03 21:59:00,
2013-05-03 17:08:00,50.9,44.6,29.98,North,0,1.1,-999.0,79,0.00,,,0.49,open2300 v1.10,2013-05-03 22:08:00,
2013-05-03 17:13:00,50.9,44.6,29.99,NE,45,4.2,-999.0,79,0.00,,,0.49,open2300 v1.10,2013-05-03 22:13:00,
2013-05-03 17:18:00,50.9,44.6,29.99,NE,45,1.1,-999.0,79,0.00,,,0.49,open2300 v1.10,2013-05-03 22:18:00,
2013-05-03 17:23:00,50.7,44.4,29.98,North,0,1.8,-999.0,79,0.00,,,0.49,open2300 v1.10,2013-05-03 22:23:00,
2013-05-03 17:29:00,50.5,44.3,29.99,SE,135,3.8,-999.0,79,0.00,,,0.49,open2300 v1.10,2013-05-03 22:29:00,
2013-05-03 17:34:00,50.4,44.1,29.99,North,0,0.0,-999.0,79,0.00,,,0.49,open2300 v1.10,2013-05-03 22:34:00,
2013-05-03 17:39:00,49.8,43.5,29.99,NE,45,0.2,-999.0,79,0.00,,,0.49,open2300 v1.10,2013-05-03 22:39:00,
2013-05-03 17:49:00,49.6,43.4,29.99,NNW,337,7.6,-999.0,79,0.00,,,0.49,open2300 v1.10,2013-05-03 22:49:00,
2013-05-03 17:54:00,49.3,43.0,29.99,East,90,0.0,-999.0,79,0.00,,,0.49,open2300 v1.10,2013-05-03 22:54:00,
2013-05-03 17:59:00,49.3,43.3,29.99,NE,45,5.8,-999.0,80,0.00,,,0.49,open2300 v1.10,2013-05-03 22:59:00,
2013-05-03 18:08:00,48.9,43.0,30.00,East,90,0.0,-999.0,80,0.00,,,0.49,open2300 v1.10,2013-05-03 23:08:00,
2013-05-03 18:13:00,48.9,43.0,30.00,NW,315,0.0,-999.0,80,0.00,,,0.49,open2300 v1.10,2013-05-03 23:13:00,
2013-05-03 18:18:00,48.7,42.8,30.00,ENE,67,6.0,-999.0,80,0.00,,,0.49,open2300 v1.10,2013-05-03 23:18:00,
2013-05-03 18:23:00,48.7,43.1,30.00,NE,45,4.7,-999.0,81,0.00,,,0.49,open2300 v1.10,2013-05-03 23:23:00,
2013-05-03 18:29:00,48.7,42.8,30.00,NNE,22,0.0,-999.0,80,0.00,,,0.49,open2300 v1.10,2013-05-03 23:29:00,
2013-05-03 18:34:00,48.7,43.1,30.00,ESE,112,5.4,-999.0,81,0.00,,,0.49,open2300 v1.10,2013-05-03 23:34:00,
2013-05-03 18:39:00,48.7,43.1,30.00,NNE,22,6.0,-999.0,81,0.00,,,0.49,open2300 v1.10,2013-05-03 23:39:00,
2013-05-03 18:44:00,48.6,42.9,30.01,North,0,0.0,-999.0,81,0.00,,,0.49,open2300 v1.10,2013-05-03 23:44:00,
2013-05-03 18:49:00,48.6,42.9,30.00,North,0,7.4,-999.0,81,0.00,,,0.49,open2300 v1.10,2013-05-03 23:49:00,
2013-05-03 18:54:00,48.4,42.8,30.01,ENE,67,0.0,-999.0,81,0.00,,,0.49,open2300 v1.10,2013-05-03 23:54:00,
2013-05-03 18:59:00,48.4,42.8,30.01,North,0,5.6,-999.0,81,0.00,,,0.49,open2300 v1.10,2013-05-03 23:59:00,
2013-05-03 19:08:00,48.2,42.3,30.02,ESE,112,0.0,-999.0,80,0.00,,,0.49,open2300 v1.10,2013-05-04 00:08:00,
2013-05-03 19:13:00,48.2,42.3,30.02,ENE,67,2.0,-999.0,80,0.00,,,0.49,open2300 v1.10,2013-05-04 00:13:00,
2013-05-03 19:18:00,48.2,42.3,30.02,NNE,22,0.0,-999.0,80,0.00,,,0.49,open2300 v1.10,2013-05-04 00:18:00,
2013-05-03 19:23:00,48.0,42.1,30.02,NE,45,0.0,-999.0,80,0.00,,,0.49,open2300 v1.10,2013-05-04 00:23:00,
2013-05-03 19:29:00,48.0,42.1,30.02,NNE,22,0.7,-999.0,80,0.00,,,0.49,open2300 v1.10,2013-05-04 00:29:00,
2013-05-03 19:34:00,48.0,42.1,30.02,North,0,8.7,-999.0,80,0.00,,,0.49,open2300 v1.10,2013-05-04 00:34:00,
2013-05-03 19:39:00,48.0,42.1,30.02,ESE,112,0.0,-999.0,80,0.00,,,0.49,open2300 v1.10,2013-05-04 00:39:00,
2013-05-03 19:49:00,47.7,41.8,30.02,ENE,67,0.4,-999.0,80,0.00,,,0.49,open2300 v1.10,2013-05-04 00:49:00,
2013-05-03 19:54:00,47.7,41.8,30.02,ESE,112,0.0,-999.0,80,0.00,,,0.49,open2300 v1.10,2013-05-04 00:54:00,
2013-05-03 19:59:00,47.5,41.6,30.03,ENE,67,2.9,-999.0,80,0.00,,,0.49,open2300 v1.10,2013-05-04 00:59:00,
2013-05-03 20:08:00,47.7,42.1,30.04,SE,135,0.0,-999.0,81,0.00,,,0.49,open2300 v1.10,2013-05-04 01:08:00,
2013-05-03 20:13:00,47.5,41.9,30.03,ESE,112,0.0,-999.0,81,0.00,,,0.49,open2300 v1.10,2013-05-04 01:13:00,
2013-05-03 20:18:00,47.5,41.9,30.04,ENE,67,0.0,-999.0,81,0.00,,,0.49,open2300 v1.10,2013-05-04 01:18:00,
2013-05-03 20:23:00,47.3,41.8,30.04,East,90,0.0,-999.0,81,0.00,,,0.49,open2300 v1.10,2013-05-04 01:23:00,
2013-05-03 20:29:00,47.1,41.6,30.04,NE,45,0.0,-999.0,81,0.00,,,0.49,open2300 v1.10,2013-05-04 01:29:00,
2013-05-03 20:34:00,46.9,41.4,30.04,ENE,67,0.0,-999.0,81,0.00,,,0.49,open2300 v1.10,2013-05-04 01:34:00,
2013-05-03 20:39:00,46.8,41.6,30.04,ENE,67,0.0,-999.0,82,0.00,,,0.49,open2300 v1.10,2013-05-04 01:39:00,
2013-05-03 20:49:00,46.2,41.1,30.03,NE,45,0.0,-999.0,82,0.00,,,0.49,open2300 v1.10,2013-05-04 01:49:00,
2013-05-03 20:54:00,46.2,41.4,30.03,NE,45,0.0,-999.0,83,0.00,,,0.49,open2300 v1.10,2013-05-04 01:54:00,
2013-05-03 20:59:00,46.0,41.2,30.04,ENE,67,0.0,-999.0,83,0.00,,,0.49,open2300 v1.10,2013-05-04 01:59:00,
2013-05-03 21:08:00,45.7,40.8,30.04,ENE,67,0.0,-999.0,83,0.00,,,0.49,open2300 v1.10,2013-05-04 02:08:00,
2013-05-03 21:13:00,45.3,40.5,30.04,ENE,67,0.0,-999.0,83,0.00,,,0.49,open2300 v1.10,2013-05-04 02:13:00,
2013-05-03 21:23:00,45.1,40.6,30.04,ENE,67,0.0,-999.0,84,0.00,,,0.49,open2300 v1.10,2013-05-04 02:23:00,
2013-05-03 21:29:00,45.1,40.6,30.04,ENE,67,0.0,-999.0,84,0.00,,,0.49,open2300 v1.10,2013-05-04 02:29:00,
2013-05-03 21:34:00,45.0,40.4,30.04,East,90,0.0,-999.0,84,0.00,,,0.49,open2300 v1.10,2013-05-04 02:34:00,
2013-05-03 21:39:00,45.0,40.7,30.04,East,90,0.0,-999.0,85,0.00,,,0.49,open2300 v1.10,2013-05-04 02:39:00,
2013-05-03 21:44:00,45.0,40.7,30.04,East,90,0.0,-999.0,85,0.00,,,0.49,open2300 v1.10,2013-05-04 02:44:00,
2013-05-03 21:49:00,45.0,40.7,30.04,ENE,67,0.0,-999.0,85,0.00,,,0.49,open2300 v1.10,2013-05-04 02:49:00,
2013-05-03 21:59:00,44.8,40.5,30.04,ENE,67,0.0,-999.0,85,0.00,,,0.49,open2300 v1.10,2013-05-04 02:59:00,
2013-05-03 22:08:00,44.4,40.2,30.04,ENE,67,0.0,-999.0,85,0.00,,,0.49,open2300 v1.10,2013-05-04 03:08:00,
2013-05-03 22:13:00,44.4,40.2,30.05,ENE,67,0.0,-999.0,85,0.00,,,0.49,open2300 v1.10,2013-05-04 03:13:00,
2013-05-03 22:18:00,44.4,40.2,30.05,ENE,67,0.0,-999.0,85,0.00,,,0.49,open2300 v1.10,2013-05-04 03:18:00,
2013-05-03 22:24:00,44.2,40.3,30.05,ENE,67,0.0,-999.0,86,0.00,,,0.49,open2300 v1.10,2013-05-04 03:24:00,
2013-05-03 22:29:00,44.2,40.3,30.04,ENE,67,0.0,-999.0,86,0.00,,,0.49,open2300 v1.10,2013-05-04 03:29:00,
2013-05-03 22:34:00,44.2,40.3,30.05,ENE,67,0.0,-999.0,86,0.00,,,0.49,open2300 v1.10,2013-05-04 03:34:00,
2013-05-03 22:39:00,44.1,40.1,30.04,ENE,67,0.0,-999.0,86,0.00,,,0.49,open2300 v1.10,2013-05-04 03:39:00,
2013-05-03 22:49:00,43.9,40.0,30.04,ENE,67,0.0,-999.0,86,0.00,,,0.49,open2300 v1.10,2013-05-04 03:49:00,
2013-05-03 22:54:00,43.9,40.0,30.04,ENE,67,0.0,-999.0,86,0.00,,,0.49,open2300 v1.10,2013-05-04 03:54:00,
2013-05-03 22:59:00,43.9,40.0,30.04,ENE,67,0.0,-999.0,86,0.00,,,0.49,open2300 v1.10,2013-05-04 03:59:00,
2013-05-03 23:03:00,43.7,39.8,30.04,ENE,67,0.0,-999.0,86,0.00,,,0.49,open2300 v1.10,2013-05-04 04:03:00,
2013-05-03 23:08:00,43.5,39.9,30.04,ENE,67,0.0,-999.0,87,0.00,,,0.49,open2300 v1.10,2013-05-04 04:08:00,
2013-05-03 23:13:00,43.5,39.9,30.04,ENE,67,0.0,-999.0,87,0.00,,,0.49,open2300 v1.10,2013-05-04 04:13:00,
2013-05-03 23:18:00,43.5,39.9,30.04,ENE,67,0.0,-999.0,87,0.00,,,0.49,open2300 v1.10,2013-05-04 04:18:00,
2013-05-03 23:24:00,43.5,39.9,30.04,ENE,67,0.0,-999.0,87,0.00,,,0.49,open2300 v1.10,2013-05-04 04:24:00,
2013-05-03 23:29:00,43.5,39.9,30.04,ENE,67,0.0,-999.0,87,0.00,,,0.49,open2300 v1.10,2013-05-04 04:29:00,
2013-05-03 23:34:00,43.5,39.9,30.04,ENE,67,0.0,-999.0,87,0.00,,,0.49,open2300 v1.10,2013-05-04 04:34:00,
2013-05-03 23:39:00,43.5,39.9,30.04,ENE,67,0.0,-999.0,87,0.00,,,0.49,open2300 v1.10,2013-05-04 04:39:00,
2013-05-03 23:44:00,43.5,39.9,30.04,ENE,67,0.0,-999.0,87,0.00,,,0.49,open2300 v1.10,2013-05-04 04:44:00,
2013-05-03 23:49:00,43.5,39.9,30.04,ENE,67,0.0,-999.0,87,0.00,,,0.49,open2300 v1.10,2013-05-04 04:49:00,
2013-05-03 23:54:00,43.5,39.9,30.04,ENE,67,0.0,-999.0,87,0.00,,,0.49,open2300 v1.10,2013-05-04 04:54:00,
2013-05-03 23:59:00,43.5,39.9,30.04,ENE,67,0.0,-999.0,87,0.00,,,0.49,open2300 v1.10,2013-05-04 04:59:00,